createdAt,value
2019-03-11T00:00:58.202Z,1.40
2019-03-11T00:03:26.639Z,2.00
2019-03-11T00:05:55.016Z,1.73
2019-03-11T00:08:23.389Z,1.57
2019-03-11T00:10:51.786Z,1.30
2019-03-11T00:13:21.503Z,1.90
2019-03-11T00:15:51.002Z,1.40
2019-03-11T00:18:19.378Z,1.83
2019-03-11T00:20:47.770Z,1.63
2019-03-11T00:23:16.150Z,1.70
2019-03-11T00:25:44.545Z,1.57
2019-03-11T00:28:12.921Z,1.50
2019-03-11T00:30:41.309Z,1.90
2019-03-11T00:33:09.693Z,1.70
2019-03-11T00:35:39.294Z,1.30
2019-03-11T00:38:07.887Z,1.63
2019-03-11T00:40:36.289Z,1.80
2019-03-11T00:43:04.744Z,2.20
2019-03-11T00:45:33.128Z,1.70
2019-03-11T00:48:02.690Z,1.40
2019-03-11T00:50:31.407Z,2.30
2019-03-11T00:53:01.505Z,1.87
2019-03-11T00:55:29.889Z,2.47
2019-03-11T00:57:59.914Z,2.10
2019-03-11T01:00:43.876Z,1.63
2019-03-11T01:05:50.631Z,2.03
2019-03-11T01:08:19.027Z,1.50
2019-03-11T01:10:56.466Z,2.20
2019-03-11T01:13:26.489Z,2.30
2019-03-11T01:15:57.685Z,2.43
2019-03-11T01:18:28.019Z,1.80
2019-03-11T01:20:56.408Z,2.00
2019-03-11T01:23:30.725Z,1.80
2019-03-11T01:25:59.840Z,2.70
2019-03-11T01:28:33.643Z,2.03
2019-03-11T01:31:09.112Z,2.13
2019-03-11T01:33:39.139Z,2.17
2019-03-11T01:36:07.773Z,2.17
2019-03-11T01:38:36.407Z,2.50
2019-03-11T01:41:07.531Z,2.33
2019-03-11T01:43:35.923Z,2.13
2019-03-11T01:46:10.187Z,2.10
2019-03-11T01:48:41.317Z,2.70
2019-03-11T01:51:09.709Z,1.83
2019-03-11T01:53:39.733Z,2.57
2019-03-11T01:56:18.813Z,2.60
2019-03-11T01:58:52.889Z,2.77
2019-03-11T02:01:21.457Z,2.60
2019-03-11T02:03:51.481Z,2.73
2019-03-11T02:06:31.622Z,2.37
2019-03-11T02:08:59.992Z,2.40
2019-03-11T02:11:31.033Z,2.43
2019-03-11T02:14:00.095Z,2.30
2019-03-11T02:16:31.436Z,2.27
2019-03-11T02:19:02.775Z,2.20
2019-03-11T02:21:35.477Z,2.70
2019-03-11T02:24:05.357Z,2.83
2019-03-11T02:26:41.387Z,2.67
2019-03-11T02:29:10.195Z,2.60
2019-03-11T02:31:40.216Z,2.67
2019-03-11T02:34:08.618Z,2.70
2019-03-11T02:36:39.846Z,2.60
2019-03-11T02:39:08.986Z,3.27
2019-03-11T02:41:40.397Z,2.40
2019-03-11T02:44:08.793Z,2.63
2019-03-11T02:46:37.200Z,2.20
2019-03-11T02:49:08.414Z,2.57
2019-03-11T02:51:37.287Z,2.47
2019-03-11T02:54:05.753Z,2.40
2019-03-11T02:56:39.531Z,2.70
2019-03-11T02:59:10.898Z,2.30
2019-03-11T03:01:49.407Z,2.40
2019-03-11T03:04:25.153Z,2.27
2019-03-11T03:06:53.547Z,2.70
2019-03-11T03:09:27.574Z,2.57
2019-03-11T03:11:56.039Z,2.33
2019-03-11T03:14:26.124Z,2.20
2019-03-11T03:17:00.499Z,2.50
2019-03-11T03:19:29.507Z,2.70
2019-03-11T03:21:57.904Z,2.63
2019-03-11T03:24:27.826Z,2.00
2019-03-11T03:27:00.620Z,2.20
2019-03-11T03:29:31.856Z,2.73
2019-03-11T03:32:01.515Z,2.50
2019-03-11T03:34:37.566Z,2.10
2019-03-11T03:37:08.776Z,3.60
2019-03-11T03:39:37.170Z,1.90
2019-03-11T03:42:08.824Z,2.10
2019-03-11T03:44:57.952Z,2.43
2019-03-11T03:47:26.330Z,3.17
2019-03-11T03:49:54.735Z,2.30
2019-03-11T03:52:23.180Z,2.10
2019-03-11T03:54:51.574Z,2.70
2019-03-11T03:57:19.983Z,1.97
2019-03-11T03:59:48.365Z,2.20
2019-03-11T04:02:18.624Z,2.30
2019-03-11T04:04:47.013Z,2.43
2019-03-11T04:07:19.578Z,2.30
2019-03-11T04:09:48.010Z,2.23
2019-03-11T04:12:19.977Z,2.10
2019-03-11T04:14:50.940Z,2.03
2019-03-11T04:17:19.394Z,2.43
2019-03-11T04:19:47.773Z,2.03
2019-03-11T04:22:16.168Z,1.70
2019-03-11T04:24:50.320Z,1.97
2019-03-11T04:27:23.106Z,1.50
2019-03-11T04:29:57.605Z,0.70
2019-03-11T04:32:26.186Z,0.60
2019-03-11T04:34:55.180Z,0.43
2019-03-11T04:37:26.456Z,0.63
2019-03-11T04:40:25.969Z,0.30
2019-03-11T04:42:56.004Z,0.70
2019-03-11T04:45:24.400Z,0.40
2019-03-11T04:48:01.358Z,0.60
2019-03-11T04:50:29.757Z,0.60
2019-03-11T04:52:58.148Z,0.20
2019-03-11T04:55:26.530Z,0.37
2019-03-11T04:57:56.856Z,0.40
2019-03-11T05:00:32.368Z,0.40
2019-03-11T05:03:03.515Z,0.20
2019-03-11T05:05:38.052Z,0.40
2019-03-11T05:08:09.206Z,0.30
2019-03-11T05:10:37.605Z,0.37
2019-03-11T05:13:06.054Z,0.40
2019-03-11T05:15:34.761Z,0.40
2019-03-11T05:18:06.277Z,0.50
2019-03-11T05:20:34.670Z,0.57
2019-03-11T05:23:03.052Z,0.40
2019-03-11T05:25:31.432Z,0.40
2019-03-11T05:27:59.821Z,0.63
2019-03-11T05:30:28.201Z,0.40
2019-03-11T05:33:01.222Z,0.50
2019-03-11T05:35:29.693Z,0.70
2019-03-11T05:37:58.069Z,0.60
2019-03-11T05:40:26.702Z,0.77
2019-03-11T05:42:56.725Z,0.60
2019-03-11T05:45:28.041Z,0.50
2019-03-11T05:47:58.415Z,0.60
2019-03-11T05:50:28.430Z,0.50
2019-03-11T05:52:56.811Z,0.80
2019-03-11T05:55:27.647Z,0.60
2019-03-11T05:58:04.502Z,0.50
2019-03-11T06:00:34.548Z,0.70
2019-03-11T06:03:04.558Z,0.70
2019-03-11T06:05:32.961Z,0.53
2019-03-11T06:08:01.334Z,0.70
2019-03-11T06:10:32.522Z,0.60
2019-03-11T06:13:10.102Z,0.57
2019-03-11T06:15:41.538Z,0.60
2019-03-11T06:18:09.911Z,0.40
2019-03-11T06:20:45.485Z,0.40
2019-03-11T06:23:16.893Z,0.50
2019-03-11T06:25:45.278Z,0.50
2019-03-11T06:28:16.641Z,0.50
2019-03-11T06:30:45.039Z,0.40
2019-03-11T06:33:17.723Z,0.60
2019-03-11T06:35:47.750Z,0.50
2019-03-11T06:38:18.905Z,0.73
2019-03-11T06:40:47.290Z,0.60
2019-03-11T06:43:37.769Z,0.50
2019-03-11T06:46:09.429Z,0.47
2019-03-11T06:48:37.817Z,0.50
2019-03-11T06:51:08.805Z,0.50
2019-03-11T06:53:42.193Z,0.50
2019-03-11T06:56:13.466Z,0.40
2019-03-11T06:58:48.569Z,0.43
2019-03-11T07:01:16.945Z,0.57
2019-03-11T07:03:47.986Z,0.60
2019-03-11T07:06:19.069Z,0.60
2019-03-11T07:08:50.475Z,0.30
2019-03-11T07:11:21.904Z,0.50
2019-03-11T07:13:50.284Z,0.77
2019-03-11T07:16:18.766Z,0.83
2019-03-11T07:18:49.792Z,0.70
2019-03-11T07:21:20.885Z,0.87
2019-03-11T07:23:49.270Z,0.83
2019-03-11T07:26:17.657Z,1.00
2019-03-11T07:28:46.290Z,0.60
2019-03-11T07:31:19.328Z,0.73
2019-03-11T07:33:47.864Z,0.80
2019-03-11T07:36:16.643Z,1.17
2019-03-11T07:38:45.038Z,1.23
2019-03-11T07:41:13.410Z,0.63
2019-03-11T07:43:44.801Z,0.80
2019-03-11T07:46:13.181Z,0.93
2019-03-11T07:48:41.809Z,0.77
2019-03-11T07:51:12.836Z,1.00
2019-03-11T07:53:42.193Z,0.73
2019-03-11T07:56:16.351Z,0.60
2019-03-11T07:58:44.730Z,0.97
2019-03-11T08:01:13.123Z,0.77
2019-03-11T08:03:41.508Z,0.77
2019-03-11T08:06:18.118Z,0.80
2019-03-11T08:08:40.803Z,0.90
2019-03-11T08:11:09.176Z,0.70
2019-03-11T08:13:37.554Z,1.03
2019-03-11T08:16:06.089Z,0.90
2019-03-11T08:18:35.472Z,0.90
2019-03-11T08:21:04.490Z,0.60
2019-03-11T08:23:35.628Z,1.00
2019-03-11T08:26:06.437Z,0.67
2019-03-11T08:28:35.067Z,1.10
2019-03-11T08:31:03.464Z,0.90
2019-03-11T08:33:34.517Z,0.93
2019-03-11T08:38:40.243Z,0.80
2019-03-11T08:41:08.641Z,0.97
2019-03-11T08:43:37.021Z,1.13
2019-03-11T08:46:05.649Z,0.90
2019-03-11T08:48:36.761Z,0.90
2019-03-11T08:51:09.684Z,0.97
2019-03-11T08:53:46.645Z,0.90
2019-03-11T08:56:15.046Z,1.03
2019-03-11T08:58:43.424Z,0.90
2019-03-11T09:01:14.225Z,0.80
2019-03-11T09:03:47.817Z,1.00
2019-03-11T09:06:15.860Z,1.10
2019-03-11T09:08:44.241Z,0.90
2019-03-11T09:11:14.257Z,0.80
2019-03-11T09:13:42.647Z,1.20
2019-03-11T09:16:25.263Z,1.23
2019-03-11T09:18:53.654Z,0.70
2019-03-11T09:21:22.033Z,1.27
2019-03-11T09:23:52.071Z,0.70
2019-03-11T09:26:20.459Z,0.90
2019-03-11T09:28:49.094Z,1.03
2019-03-11T09:31:17.487Z,0.80
2019-03-11T09:33:45.870Z,0.50
2019-03-11T09:36:23.226Z,0.50
2019-03-11T09:38:53.245Z,0.57
2019-03-11T09:41:23.263Z,0.70
2019-03-11T09:43:51.686Z,0.90
2019-03-11T09:46:21.086Z,1.03
2019-03-11T09:48:52.355Z,0.67
2019-03-11T09:51:20.733Z,1.40
2019-03-11T09:53:53.540Z,0.83
2019-03-11T09:56:24.641Z,1.00
2019-03-11T09:58:56.434Z,1.00
2019-03-11T10:01:27.717Z,1.10
2019-03-11T10:04:01.501Z,0.87
2019-03-11T10:06:29.889Z,1.00
2019-03-11T10:09:21.931Z,1.00
2019-03-11T10:11:53.345Z,0.90
2019-03-11T10:14:21.726Z,0.90
2019-03-11T10:16:50.349Z,1.30
2019-03-11T10:19:18.769Z,0.80
2019-03-11T10:21:47.169Z,1.03
2019-03-11T10:24:18.472Z,1.17
2019-03-11T10:26:49.506Z,0.90
2019-03-11T10:29:17.894Z,0.80
2019-03-11T10:31:46.292Z,1.10
2019-03-11T10:34:14.897Z,0.80
2019-03-11T10:36:43.286Z,0.60
2019-03-11T10:39:18.221Z,1.00
2019-03-11T10:41:46.845Z,0.87
2019-03-11T10:44:15.242Z,0.70
2019-03-11T10:46:45.108Z,0.80
2019-03-11T10:49:14.015Z,0.90
2019-03-11T10:51:42.393Z,0.70
2019-03-11T10:54:10.788Z,0.60
2019-03-11T10:56:39.171Z,0.70
2019-03-11T10:59:07.573Z,0.97
2019-03-11T11:01:38.917Z,0.67
2019-03-11T11:04:07.297Z,0.70
2019-03-11T11:06:35.744Z,1.13
2019-03-11T11:09:08.708Z,0.87
2019-03-11T11:11:37.079Z,0.70
2019-03-11T11:14:07.276Z,0.90
2019-03-11T11:16:35.899Z,0.70
2019-03-11T11:19:04.301Z,0.80
2019-03-11T11:21:32.709Z,0.70
2019-03-11T11:24:01.093Z,0.90
2019-03-11T11:26:30.396Z,0.90
2019-03-11T11:28:58.869Z,1.07
2019-03-11T11:31:31.451Z,0.90
2019-03-11T11:33:57.417Z,0.60
2019-03-11T11:36:26.062Z,0.77
2019-03-11T11:38:54.506Z,0.90
2019-03-11T11:41:24.258Z,0.90
2019-03-11T11:43:52.610Z,0.63
2019-03-11T11:46:20.989Z,0.80
2019-03-11T11:48:49.625Z,0.60
2019-03-11T11:51:18.000Z,0.70
2019-03-11T11:53:46.392Z,0.60
2019-03-11T11:56:14.776Z,1.00
2019-03-11T11:58:43.153Z,0.83
2019-03-11T12:01:12.505Z,0.70
2019-03-11T12:03:40.889Z,0.83
2019-03-11T12:06:09.265Z,0.70
2019-03-11T12:08:37.657Z,1.00
2019-03-11T12:11:06.358Z,0.70
2019-03-11T12:13:34.744Z,0.80
2019-03-11T12:16:03.137Z,0.90
2019-03-11T12:18:31.504Z,0.60
2019-03-11T12:21:00.136Z,0.80
2019-03-11T12:23:28.517Z,0.77
2019-03-11T12:25:57.175Z,0.70
2019-03-11T12:28:25.586Z,0.70
2019-03-11T12:30:54.207Z,0.70
2019-03-11T12:33:22.602Z,0.70
2019-03-11T12:35:51.322Z,0.70
2019-03-11T12:38:19.935Z,0.90
2019-03-11T12:40:48.329Z,0.93
2019-03-11T12:43:16.705Z,0.87
2019-03-11T12:45:45.244Z,0.87
2019-03-11T12:48:13.660Z,0.83
2019-03-11T12:50:42.103Z,0.67
2019-03-11T12:53:11.100Z,0.90
2019-03-11T12:55:39.757Z,1.00
2019-03-11T12:58:09.399Z,0.87
2019-03-11T13:00:38.066Z,0.70
2019-03-11T13:03:06.454Z,0.90
2019-03-11T13:05:37.777Z,0.60
2019-03-11T13:08:06.402Z,0.90
2019-03-11T13:10:34.785Z,0.90
2019-03-11T13:13:04.137Z,0.90
2019-03-11T13:15:34.577Z,1.03
2019-03-11T13:18:33.111Z,0.90
2019-03-11T13:21:22.958Z,0.80
2019-03-11T13:23:55.578Z,1.13
2019-03-11T13:26:21.450Z,1.00
2019-03-11T13:28:50.069Z,0.80
2019-03-11T13:31:18.458Z,0.70
2019-03-11T13:33:46.841Z,0.90
2019-03-11T13:36:15.485Z,0.73
2019-03-11T13:38:45.629Z,1.17
2019-03-11T13:41:14.382Z,1.10
2019-03-11T13:43:42.897Z,0.67
2019-03-11T13:46:11.287Z,0.70
2019-03-11T13:48:39.923Z,0.60
2019-03-11T13:51:08.311Z,0.83
2019-03-11T13:53:37.378Z,0.67
2019-03-11T13:56:06.009Z,0.67
2019-03-11T13:58:34.399Z,0.70
2019-03-11T14:01:03.361Z,0.87
2019-03-11T14:03:31.752Z,0.50
2019-03-11T14:06:00.419Z,0.80
2019-03-11T14:08:29.053Z,0.70
2019-03-11T14:10:58.506Z,0.70
2019-03-11T14:13:26.893Z,0.80
2019-03-11T14:15:56.973Z,0.60
2019-03-11T14:18:25.401Z,0.67
2019-03-11T14:20:53.771Z,0.90
2019-03-11T14:23:22.410Z,0.80
2019-03-11T14:25:50.800Z,0.60
2019-03-11T14:28:20.565Z,0.60
2019-03-11T14:30:48.974Z,0.50
2019-03-11T14:33:17.337Z,0.40
2019-03-11T14:35:45.717Z,0.63
2019-03-11T14:38:14.093Z,0.73
2019-03-11T14:40:42.485Z,0.70
2019-03-11T14:43:11.098Z,0.67
2019-03-11T14:45:39.502Z,0.63
2019-03-11T14:48:07.890Z,0.80
2019-03-11T14:50:36.279Z,0.70
2019-03-11T14:53:04.674Z,0.60
2019-03-11T14:55:33.086Z,0.60
2019-03-11T14:58:01.467Z,1.00
2019-03-11T15:00:29.860Z,0.80
2019-03-11T15:03:01.452Z,0.73
2019-03-11T15:05:36.025Z,0.73
2019-03-11T15:08:04.671Z,0.87
2019-03-11T15:10:33.057Z,0.70
2019-03-11T15:13:01.455Z,0.83
2019-03-11T15:15:29.830Z,0.73
2019-03-11T15:17:58.218Z,0.97
2019-03-11T15:20:26.613Z,0.83
2019-03-11T15:23:07.754Z,0.77
2019-03-11T15:25:32.485Z,0.70
2019-03-11T15:28:00.874Z,1.33
2019-03-11T15:30:29.277Z,0.70
2019-03-11T15:32:57.665Z,0.63
2019-03-11T15:35:31.857Z,1.00
2019-03-11T15:38:00.426Z,0.63
2019-03-11T15:40:28.797Z,1.10
2019-03-11T15:43:03.020Z,0.70
2019-03-11T15:45:38.512Z,0.77
2019-03-11T15:48:23.798Z,0.70
2019-03-11T15:50:52.756Z,0.87
2019-03-11T15:53:21.147Z,0.80
2019-03-11T15:55:49.525Z,0.60
2019-03-11T15:58:20.589Z,0.87
2019-03-11T16:00:54.604Z,0.77
2019-03-11T16:03:23.066Z,0.80
2019-03-11T16:05:54.492Z,0.90
2019-03-11T16:08:25.401Z,0.87
2019-03-11T16:10:56.901Z,0.50
2019-03-11T16:13:26.934Z,0.70
2019-03-11T16:15:55.316Z,0.77
2019-03-11T16:18:23.939Z,0.80
2019-03-11T16:21:10.069Z,0.90
2019-03-11T16:23:41.768Z,0.70
2019-03-11T16:26:10.202Z,0.83
2019-03-11T16:28:47.725Z,0.83
2019-03-11T16:31:14.544Z,0.90
2019-03-11T16:33:43.147Z,0.83
2019-03-11T16:36:14.506Z,1.00
2019-03-11T16:38:42.894Z,1.23
2019-03-11T16:41:15.673Z,0.90
2019-03-11T16:43:44.342Z,0.90
2019-03-11T16:46:12.729Z,0.97
2019-03-11T16:48:41.367Z,1.00
2019-03-11T16:51:10.009Z,0.70
2019-03-11T16:53:38.405Z,0.70
2019-03-11T16:56:06.798Z,0.80
2019-03-11T16:58:35.253Z,0.63
2019-03-11T17:01:08.009Z,0.80
2019-03-11T17:03:36.393Z,0.87
2019-03-11T17:06:11.601Z,0.90
2019-03-11T17:08:39.988Z,0.70
2019-03-11T17:11:08.385Z,1.00
2019-03-11T17:13:36.786Z,1.10
2019-03-11T17:16:05.186Z,1.27
2019-03-11T17:18:33.569Z,0.73
2019-03-11T17:21:01.967Z,0.90
2019-03-11T17:23:35.924Z,0.90
2019-03-11T17:26:08.411Z,1.00
2019-03-11T17:28:36.776Z,0.90
2019-03-11T17:31:05.162Z,1.10
2019-03-11T17:33:36.448Z,1.10
2019-03-11T17:36:05.561Z,0.67
2019-03-11T17:38:34.205Z,0.90
2019-03-11T17:41:02.833Z,0.93
2019-03-11T17:43:31.494Z,0.90
2019-03-11T17:46:00.044Z,0.77
2019-03-11T17:48:28.397Z,1.00
2019-03-11T17:50:59.707Z,1.17
2019-03-11T17:53:34.292Z,0.90
2019-03-11T17:56:10.106Z,1.07
2019-03-11T17:58:38.546Z,0.87
2019-03-11T18:01:09.901Z,0.80
2019-03-11T18:03:43.906Z,1.00
2019-03-11T18:06:14.969Z,0.80
2019-03-11T18:08:46.001Z,0.80
2019-03-11T18:11:14.623Z,0.70
2019-03-11T18:13:43.990Z,0.80
2019-03-11T18:16:12.370Z,0.90
2019-03-11T18:18:42.409Z,0.83
2019-03-11T18:21:11.030Z,0.97
2019-03-11T18:23:39.422Z,0.73
2019-03-11T18:26:12.042Z,1.10
2019-03-11T18:28:43.738Z,0.60
2019-03-11T18:31:12.137Z,0.70
2019-03-11T18:33:40.538Z,0.63
2019-03-11T18:36:08.940Z,0.80
2019-03-11T18:38:37.363Z,1.03
2019-03-11T18:41:09.437Z,1.40
2019-03-11T18:43:42.669Z,0.80
2019-03-11T18:46:10.737Z,0.90
2019-03-11T18:48:39.182Z,0.90
2019-03-11T18:51:11.198Z,1.23
2019-03-11T18:53:40.533Z,1.10
2019-03-11T18:56:08.981Z,1.00
2019-03-11T18:58:40.152Z,0.87
2019-03-11T19:01:09.214Z,0.93
2019-03-11T19:03:38.709Z,1.00
2019-03-11T19:06:07.087Z,0.90
2019-03-11T19:08:37.007Z,1.30
2019-03-11T19:11:05.400Z,1.43
2019-03-11T19:13:33.760Z,1.40
2019-03-11T19:16:02.186Z,1.10
2019-03-11T19:18:31.130Z,1.37
2019-03-11T19:21:00.684Z,1.40
2019-03-11T19:23:29.199Z,1.20
2019-03-11T19:25:59.201Z,1.40
2019-03-11T19:28:27.631Z,1.10
2019-03-11T19:30:56.772Z,1.40
2019-03-11T19:33:25.294Z,1.37
2019-03-11T19:35:57.931Z,1.20
2019-03-11T19:38:27.898Z,1.20
2019-03-11T19:40:56.436Z,1.30
2019-03-11T19:43:24.899Z,1.17
2019-03-11T19:45:56.247Z,1.37
2019-03-11T19:48:25.201Z,1.40
2019-03-11T19:50:54.529Z,1.40
2019-03-11T19:53:24.504Z,1.13
2019-03-11T19:55:55.846Z,1.53
2019-03-11T19:58:26.829Z,1.13
2019-03-11T20:00:56.959Z,1.17
2019-03-11T20:03:30.350Z,1.73
2019-03-11T20:05:55.522Z,1.50
2019-03-11T20:08:23.999Z,1.50
2019-03-11T20:10:52.401Z,1.20
2019-03-11T20:13:23.825Z,1.40
2019-03-11T20:15:54.235Z,1.60
2019-03-11T20:18:29.700Z,1.70
2019-03-11T20:21:00.682Z,1.20
2019-03-11T20:23:32.061Z,1.60
2019-03-11T20:26:00.781Z,1.67
2019-03-11T20:28:29.245Z,1.83
2019-03-11T20:30:59.172Z,1.43
2019-03-11T20:33:37.143Z,1.90
2019-03-11T20:36:20.338Z,1.53
2019-03-11T20:38:39.047Z,2.00
2019-03-11T20:41:09.283Z,2.00
2019-03-11T20:43:37.979Z,2.23
2019-03-11T20:46:06.416Z,1.70
2019-03-11T20:48:34.805Z,1.87
2019-03-11T20:51:03.233Z,2.03
2019-03-11T20:53:31.639Z,2.17
2019-03-11T20:56:00.015Z,1.70
2019-03-11T20:58:31.063Z,1.53
2019-03-11T21:01:00.776Z,1.73
2019-03-11T21:03:29.149Z,2.00
2019-03-11T21:06:00.734Z,1.77
2019-03-11T21:08:31.987Z,1.93
2019-03-11T21:11:02.097Z,2.03
2019-03-11T21:13:36.544Z,2.23
2019-03-11T21:16:04.987Z,1.70
2019-03-11T21:18:35.108Z,1.87
2019-03-11T21:21:05.216Z,1.60
2019-03-11T21:23:38.074Z,1.30
2019-03-11T21:26:11.926Z,1.50
2019-03-11T21:28:40.422Z,1.53
2019-03-11T21:31:09.564Z,1.43
2019-03-11T21:33:38.522Z,1.40
2019-03-11T21:36:08.760Z,1.30
2019-03-11T21:38:40.658Z,1.27
2019-03-11T21:41:13.915Z,1.80
2019-03-11T21:43:42.331Z,1.70
2019-03-11T21:46:10.977Z,1.23
2019-03-11T21:48:39.433Z,1.43
2019-03-11T21:51:07.832Z,1.50
2019-03-11T21:53:38.998Z,1.63
2019-03-11T21:56:07.447Z,1.70
2019-03-11T21:58:35.868Z,1.57
2019-03-11T22:01:07.117Z,1.33
2019-03-11T22:03:35.603Z,2.17
2019-03-11T22:06:08.086Z,1.10
2019-03-11T22:08:36.468Z,1.30
2019-03-11T22:11:07.399Z,1.40
2019-03-11T22:13:37.577Z,1.53
2019-03-11T22:16:05.955Z,1.30
2019-03-11T22:18:34.341Z,1.30
2019-03-11T22:21:05.745Z,1.70
2019-03-11T22:23:42.135Z,1.27
2019-03-11T22:26:10.462Z,1.20
2019-03-11T22:28:40.529Z,1.73
2019-03-11T22:31:08.904Z,1.80
2019-03-11T22:33:38.957Z,1.70
2019-03-11T22:36:07.351Z,1.60
2019-03-11T22:38:35.723Z,1.40
2019-03-11T22:41:06.778Z,1.47
2019-03-11T22:43:36.724Z,1.53
2019-03-11T22:46:05.106Z,1.57
2019-03-11T22:48:39.182Z,1.23
2019-03-11T22:51:07.553Z,1.63
2019-03-11T22:53:41.826Z,1.40
2019-03-11T22:56:11.846Z,1.37
2019-03-11T22:58:40.271Z,1.80
2019-03-11T23:01:12.533Z,1.40
2019-03-11T23:03:50.544Z,1.60
2019-03-11T23:06:16.473Z,1.93
2019-03-11T23:08:45.096Z,1.53
2019-03-11T23:11:17.558Z,1.70
2019-03-11T23:13:48.771Z,1.80
2019-03-11T23:16:18.444Z,1.60
2019-03-11T23:18:48.850Z,1.43
2019-03-11T23:21:17.226Z,2.50
2019-03-11T23:23:45.605Z,1.90
2019-03-11T23:26:17.028Z,1.40
2019-03-11T23:28:48.488Z,1.50
2019-03-11T23:31:16.901Z,1.40
2019-03-11T23:33:47.697Z,1.50
2019-03-11T23:36:16.105Z,1.50
2019-03-11T23:38:47.500Z,1.57
2019-03-11T23:41:18.797Z,1.37
2019-03-11T23:43:48.832Z,1.47
2019-03-11T23:46:19.869Z,1.27
2019-03-11T23:48:50.953Z,1.40
2019-03-11T23:51:19.353Z,1.50
2019-03-11T23:53:48.522Z,1.87
2019-03-11T23:56:19.676Z,1.60
2019-03-11T23:58:53.638Z,1.50
